Time;durP1;ratioP1;P1;durP2;ratioP2;P2;SDS_P1;SDS_P2;PMS_P1;PMS_P2;Temp;Humidity;BMP_temperature;BMP_pressure;BME280_temperature;BME280_humidity;BME280_pressure;Samples;Min_cycle;Max_cycle;Signal;HPM_P1;HPM_P2
2021/03/30 00:01:12;;;;;;;15.83;6.03;;;8.20;99.90;;;;;;5095905;28;20620;-64
2021/03/30 00:03:38;;;;;;;6.63;5.93;;;8.20;99.90;;;;;;5095612;28;20395;-64
2021/03/30 00:06:04;;;;;;;9.20;5.80;;;8.10;99.90;;;;;;5096474;28;20174;-64
2021/03/30 00:08:29;;;;;;;7.90;6.20;;;8.10;99.90;;;;;;5095933;28;20175;-64
2021/03/30 00:10:55;;;;;;;9.60;6.20;;;8.10;99.90;;;;;;5095467;28;20385;-64
2021/03/30 00:13:21;;;;;;;9.70;5.73;;;8.10;99.90;;;;;;5094281;28;20681;-64
2021/03/30 00:15:47;;;;;;;7.77;5.53;;;8.10;99.90;;;;;;5094436;28;20397;-64
2021/03/30 00:18:12;;;;;;;6.23;5.60;;;8.10;99.90;;;;;;5095350;28;20165;-64
2021/03/30 00:20:38;;;;;;;8.13;6.17;;;8.00;99.90;;;;;;5095395;28;20242;-64
2021/03/30 00:23:04;;;;;;;7.20;5.60;;;8.00;99.90;;;;;;5096168;28;20207;-64
2021/03/30 00:25:30;;;;;;;7.80;6.20;;;8.00;99.90;;;;;;5095329;28;20163;-64
2021/03/30 00:27:55;;;;;;;8.93;5.50;;;8.00;99.90;;;;;;5095147;28;20803;-64
2021/03/30 00:30:22;;;;;;;7.20;5.77;;;8.00;99.90;;;;;;5095612;28;20582;-64
2021/03/30 00:32:48;;;;;;;9.77;5.57;;;7.90;99.90;;;;;;5095262;28;20167;-64
2021/03/30 00:35:13;;;;;;;9.23;6.47;;;7.90;99.90;;;;;;5095210;28;20393;-64
2021/03/30 00:37:39;;;;;;;8.03;6.47;;;7.90;99.90;;;;;;5095089;28;20159;-64
2021/03/30 00:40:08;;;;;;;7.57;6.63;;;8.00;99.90;;;;;;5095567;28;20178;-64
2021/03/30 00:42:34;;;;;;;9.50;6.17;;;7.90;99.90;;;;;;5094688;28;20675;-64
2021/03/30 00:44:59;;;;;;;7.70;6.30;;;7.90;99.90;;;;;;5094126;28;20392;-64
2021/03/30 00:47:27;;;;;;;7.30;6.00;;;7.90;99.90;;;;;;5094792;28;20432;-64
2021/03/30 00:49:55;;;;;;;13.33;6.20;;;7.90;99.90;;;;;;5093482;28;20179;-64
2021/03/30 00:52:21;;;;;;;6.83;5.60;;;7.90;99.90;;;;;;5094946;28;20501;-64
2021/03/30 00:54:47;;;;;;;9.03;6.50;;;7.80;99.90;;;;;;5094667;28;20925;-64
2021/03/30 00:57:15;;;;;;;8.77;6.23;;;7.80;99.90;;;;;;5113552;28;20435;-64
2021/03/30 00:59:41;;;;;;;11.30;5.57;;;7.80;99.90;;;;;;5115195;28;20450;-64
2021/03/30 01:02:06;;;;;;;7.73;5.77;;;7.70;99.90;;;;;;5113640;28;20468;-64
2021/03/30 01:04:32;;;;;;;8.43;5.30;;;7.70;99.90;;;;;;5114579;28;20215;-64
2021/03/30 01:06:58;;;;;;;9.70;5.80;;;7.70;99.90;;;;;;5113280;28;20161;-64
2021/03/30 01:18:10;;;;;;;8.57;6.17;;;7.60;99.90;;;;;;5131480;27;21054;-64
2021/03/30 01:23:54;;;;;;;7.87;5.47;;;7.60;99.90;;;;;;5131264;27;20569;-64
2021/03/30 01:26:43;;;;;;;8.53;6.00;;;7.50;99.90;;;;;;5130486;28;20402;-64
2021/03/30 01:31:59;;;;;;;6.70;5.33;;;7.40;99.90;;;;;;5131678;27;20508;-63
2021/03/30 01:34:26;;;;;;;7.47;6.00;;;7.40;99.90;;;;;;5131388;28;20399;-63
2021/03/30 01:36:55;;;;;;;9.17;6.87;;;7.40;99.90;;;;;;5131407;28;20868;-63
2021/03/30 01:39:22;;;;;;;8.53;5.60;;;7.40;99.90;;;;;;5131385;28;20880;-63
2021/03/30 01:41:50;;;;;;;8.90;6.17;;;7.40;99.90;;;;;;5130567;28;20868;-63
2021/03/30 01:44:19;;;;;;;7.80;6.23;;;7.30;99.90;;;;;;5129985;28;20868;-63
2021/03/30 01:46:46;;;;;;;8.80;6.57;;;7.30;99.90;;;;;;5124513;28;20424;-66
2021/03/30 01:49:14;;;;;;;6.37;5.60;;;7.30;99.90;;;;;;5109293;28;20760;-63
2021/03/30 01:51:41;;;;;;;6.73;5.23;;;7.30;99.90;;;;;;5110526;28;20444;-63
2021/03/30 01:54:09;;;;;;;8.33;6.00;;;7.20;99.90;;;;;;5110395;28;20447;-63
2021/03/30 01:56:36;;;;;;;10.43;6.43;;;7.20;99.90;;;;;;5110649;28;20514;-63
2021/03/30 01:59:03;;;;;;;7.60;6.80;;;7.20;99.90;;;;;;5110331;28;20392;-66
2021/03/30 02:01:30;;;;;;;6.93;6.00;;;7.20;99.90;;;;;;5110161;28;20403;-66
2021/03/30 02:03:59;;;;;;;8.53;5.77;;;7.10;99.90;;;;;;5118467;28;20441;-65
2021/03/30 02:06:26;;;;;;;8.67;6.43;;;7.10;99.90;;;;;;5129985;28;20403;-67
2021/03/30 02:08:53;;;;;;;7.83;6.03;;;7.10;99.90;;;;;;5130619;27;20408;-66
2021/03/30 02:11:27;;;;;;;9.50;6.50;;;7.10;99.90;;;;;;5130885;27;20443;-66
2021/03/30 02:13:56;;;;;;;7.70;5.80;;;7.10;99.90;;;;;;5130576;28;20383;-66
2021/03/30 02:16:25;;;;;;;9.53;6.37;;;7.10;99.90;;;;;;5130724;27;20819;-66
2021/03/30 02:21:33;;;;;;;7.90;5.93;;;7.00;99.90;;;;;;5139287;27;20579;-66
2021/03/30 02:24:04;;;;;;;6.70;5.57;;;7.00;99.90;;;;;;5131811;28;20891;-66
2021/03/30 02:26:31;;;;;;;7.17;5.93;;;7.00;99.90;;;;;;5131157;28;20392;-66
2021/03/30 02:28:59;;;;;;;9.27;6.40;;;7.00;99.90;;;;;;5131466;28;20415;-66
2021/03/30 02:31:31;;;;;;;6.97;5.90;;;7.00;99.90;;;;;;5131272;28;20406;-66
2021/03/30 02:34:01;;;;;;;10.23;7.67;;;6.90;99.90;;;;;;5131104;28;20384;-66
2021/03/30 02:36:28;;;;;;;10.73;6.93;;;6.90;99.90;;;;;;5131023;28;20902;-66
2021/03/30 02:38:58;;;;;;;8.40;6.33;;;6.90;99.90;;;;;;5131180;28;20490;-66
2021/03/30 02:41:28;;;;;;;8.93;6.97;;;6.90;99.90;;;;;;5131194;28;20415;-66
2021/03/30 02:43:56;;;;;;;12.00;6.80;;;6.90;99.90;;;;;;5112761;28;20388;-66
2021/03/30 02:46:23;;;;;;;8.23;7.30;;;6.90;99.90;;;;;;5131292;28;20419;-66
2021/03/30 02:48:49;;;;;;;7.60;6.63;;;6.80;99.90;;;;;;5130785;28;20383;-66
2021/03/30 02:51:16;;;;;;;8.47;6.13;;;6.80;99.90;;;;;;5112805;28;20861;-66
2021/03/30 02:53:42;;;;;;;9.60;7.20;;;6.70;99.90;;;;;;5115706;28;20499;-66
2021/03/30 02:56:09;;;;;;;7.90;6.93;;;6.70;99.90;;;;;;5129333;28;20899;-66
2021/03/30 02:58:36;;;;;;;10.07;6.70;;;6.70;99.90;;;;;;5130578;28;20757;-66
2021/03/30 03:01:02;;;;;;;8.00;6.90;;;6.70;99.90;;;;;;5130382;28;20876;-66
2021/03/30 03:03:31;;;;;;;6.90;6.00;;;6.60;99.90;;;;;;5130500;28;20383;-67
2021/03/30 03:05:58;;;;;;;8.30;6.60;;;6.60;99.90;;;;;;5130810;28;20380;-66
2021/03/30 03:08:24;;;;;;;8.30;7.10;;;6.60;99.90;;;;;;5130926;28;20402;-66
2021/03/30 03:10:51;;;;;;;9.00;6.70;;;6.60;99.90;;;;;;5130336;28;20391;-66
2021/03/30 03:13:17;;;;;;;7.83;7.03;;;6.50;99.90;;;;;;5130125;28;20413;-66
2021/03/30 03:15:44;;;;;;;7.50;6.50;;;6.50;99.90;;;;;;5130293;28;20392;-66
2021/03/30 03:18:11;;;;;;;7.20;6.23;;;6.50;99.90;;;;;;5130283;28;20166;-66
2021/03/30 03:20:37;;;;;;;8.83;6.10;;;6.50;99.90;;;;;;5130024;28;20490;-66
2021/03/30 03:23:04;;;;;;;8.37;7.27;;;6.40;99.90;;;;;;5130598;28;20482;-66
2021/03/30 03:25:30;;;;;;;8.73;7.53;;;6.40;99.90;;;;;;5130090;28;20392;-67
2021/03/30 03:27:59;;;;;;;10.33;7.57;;;6.40;99.90;;;;;;5130072;28;20751;-66
2021/03/30 03:30:26;;;;;;;12.73;7.23;;;6.40;99.90;;;;;;5129870;28;20403;-66
2021/03/30 03:32:52;;;;;;;8.13;7.07;;;6.40;99.90;;;;;;5098006;28;20933;-66
2021/03/30 03:35:17;;;;;;;10.00;6.93;;;6.40;99.90;;;;;;5116335;28;20475;-66
2021/03/30 03:37:44;;;;;;;9.70;7.13;;;6.30;99.90;;;;;;5098262;28;20170;-66
2021/03/30 03:40:12;;;;;;;10.43;7.57;;;6.30;99.90;;;;;;5116366;28;20220;-66
2021/03/30 03:42:38;;;;;;;8.90;7.17;;;6.30;99.90;;;;;;5116115;28;20488;-67
2021/03/30 03:45:07;;;;;;;9.60;7.57;;;6.30;99.90;;;;;;5115898;28;20484;-66
2021/03/30 03:47:32;;;;;;;10.93;7.10;;;6.30;99.90;;;;;;5097944;28;20447;-67
2021/03/30 03:49:58;;;;;;;10.30;8.03;;;6.30;99.90;;;;;;5115992;28;20412;-66
2021/03/30 03:52:25;;;;;;;9.10;8.20;;;6.30;99.90;;;;;;5111687;28;20186;-66
2021/03/30 03:54:57;;;;;;;13.23;9.10;;;6.30;99.90;;;;;;5095363;28;20539;-66
2021/03/30 03:57:27;;;;;;;8.53;7.63;;;6.30;99.90;;;;;;5095363;28;20405;-66
2021/03/30 03:59:53;;;;;;;14.17;8.27;;;6.20;99.90;;;;;;5095326;28;20574;-66
2021/03/30 04:02:23;;;;;;;9.67;8.10;;;6.20;99.90;;;;;;5099093;28;20408;-66
2021/03/30 04:05:10;;;;;;;10.27;8.10;;;6.20;99.90;;;;;;5116043;28;20426;-66
2021/03/30 04:07:45;;;;;;;10.03;7.47;;;6.20;99.90;;;;;;5115842;28;20396;-67
2021/03/30 04:10:12;;;;;;;14.13;9.17;;;6.20;99.90;;;;;;5098162;28;20399;-66
2021/03/30 04:12:40;;;;;;;14.23;8.37;;;6.20;99.90;;;;;;5115591;28;20793;-66
2021/03/30 04:15:07;;;;;;;10.83;7.43;;;6.20;99.90;;;;;;5115518;28;20415;-66
2021/03/30 04:17:33;;;;;;;9.53;7.60;;;6.20;99.90;;;;;;5115317;28;20392;-66
2021/03/30 04:20:03;;;;;;;8.30;7.50;;;6.10;99.90;;;;;;5115153;28;20466;-66
2021/03/30 04:22:29;;;;;;;12.60;7.77;;;6.20;99.90;;;;;;5115585;28;20454;-66
2021/03/30 04:24:54;;;;;;;9.10;7.80;;;6.10;99.90;;;;;;5115190;28;20400;-66
2021/03/30 04:27:20;;;;;;;8.80;7.90;;;6.10;99.90;;;;;;5115368;28;20163;-66
2021/03/30 04:29:45;;;;;;;8.93;7.20;;;6.10;99.90;;;;;;5115183;28;20564;-66
2021/03/30 04:32:11;;;;;;;9.00;7.83;;;6.10;99.90;;;;;;5115040;28;20689;-66
2021/03/30 04:34:37;;;;;;;9.97;8.30;;;6.10;99.90;;;;;;5115212;28;20162;-66
2021/03/30 04:37:03;;;;;;;7.90;7.17;;;6.10;99.90;;;;;;5114980;28;20558;-67
2021/03/30 04:39:29;;;;;;;9.50;7.13;;;6.00;99.90;;;;;;5096917;28;20726;-66
2021/03/30 04:41:54;;;;;;;14.17;7.50;;;6.00;99.90;;;;;;5114924;28;20392;-66
2021/03/30 04:44:20;;;;;;;10.80;8.53;;;6.00;99.90;;;;;;5113806;28;20572;-66
2021/03/30 04:46:46;;;;;;;11.63;8.67;;;6.00;99.90;;;;;;5114707;28;20554;-66
2021/03/30 04:49:11;;;;;;;10.07;8.20;;;6.00;99.90;;;;;;5114945;28;20162;-66
2021/03/30 04:51:37;;;;;;;9.90;7.60;;;5.90;99.90;;;;;;5114710;28;20229;-66
2021/03/30 04:54:02;;;;;;;11.67;8.67;;;5.90;99.90;;;;;;5114446;28;20533;-66
2021/03/30 04:56:28;;;;;;;10.73;7.60;;;5.90;99.90;;;;;;5114637;28;20687;-66
2021/03/30 04:58:53;;;;;;;12.23;8.53;;;5.90;99.90;;;;;;5114559;28;20213;-66
2021/03/30 05:01:19;;;;;;;12.97;7.80;;;5.90;99.90;;;;;;5114754;28;20190;-66
2021/03/30 05:03:45;;;;;;;10.20;7.83;;;5.90;99.90;;;;;;5114826;28;20154;-66
2021/03/30 05:06:10;;;;;;;10.83;8.80;;;5.90;99.90;;;;;;5114744;28;20158;-66
2021/03/30 05:08:37;;;;;;;10.57;8.07;;;5.90;99.90;;;;;;5114605;28;20158;-66
2021/03/30 05:11:03;;;;;;;12.90;7.70;;;5.80;99.90;;;;;;5114310;28;20188;-66
2021/03/30 05:13:28;;;;;;;11.57;8.90;;;5.80;99.90;;;;;;5114424;28;20400;-66
2021/03/30 05:15:54;;;;;;;10.23;7.90;;;5.80;99.90;;;;;;5114921;28;20411;-66
2021/03/30 05:18:19;;;;;;;14.20;10.90;;;5.80;99.90;;;;;;5114350;28;20167;-66
2021/03/30 05:20:45;;;;;;;15.30;10.20;;;5.80;99.90;;;;;;5114092;28;20654;-66
2021/03/30 05:23:10;;;;;;;13.93;9.37;;;5.80;99.90;;;;;;5114192;28;20158;-66
2021/03/30 05:25:37;;;;;;;10.97;8.10;;;5.80;99.90;;;;;;5114385;28;20249;-66
2021/03/30 05:28:04;;;;;;;10.87;8.70;;;5.80;99.90;;;;;;5114005;28;20570;-66
2021/03/30 05:30:29;;;;;;;12.60;11.30;;;5.80;99.90;;;;;;5114869;28;20879;-66
2021/03/30 05:32:55;;;;;;;11.37;10.27;;;5.80;99.90;;;;;;5114072;28;20437;-66
2021/03/30 05:35:21;;;;;;;13.70;10.23;;;5.80;99.90;;;;;;5114360;28;20245;-66
2021/03/30 05:37:46;;;;;;;18.80;9.43;;;5.80;99.90;;;;;;5114104;28;20173;-66
2021/03/30 05:40:14;;;;;;;11.47;8.83;;;5.80;99.90;;;;;;5113851;28;20318;-66
2021/03/30 05:42:40;;;;;;;16.30;9.93;;;5.80;99.90;;;;;;5113999;28;20151;-66
2021/03/30 05:45:08;;;;;;;11.60;10.40;;;5.80;99.90;;;;;;5114453;28;20404;-66
2021/03/30 05:47:34;;;;;;;19.57;10.70;;;5.80;99.90;;;;;;5079229;28;20150;-66
2021/03/30 05:50:01;;;;;;;21.17;10.90;;;5.80;99.90;;;;;;5113838;28;20399;-66
2021/03/30 05:52:37;;;;;;;21.80;11.47;;;5.80;99.90;;;;;;5113849;28;20511;-66
2021/03/30 05:55:04;;;;;;;19.83;9.40;;;5.80;99.90;;;;;;5113397;28;20411;-66
2021/03/30 05:57:29;;;;;;;22.00;10.87;;;5.90;99.90;;;;;;5114076;28;20404;-66
2021/03/30 05:59:57;;;;;;;14.77;9.50;;;5.90;99.90;;;;;;5114438;28;20432;-66
2021/03/30 06:02:45;;;;;;;12.40;9.57;;;5.90;99.90;;;;;;5113813;28;20700;-66
2021/03/30 06:05:15;;;;;;;12.67;9.33;;;5.90;99.90;;;;;;5098685;28;20420;-66
2021/03/30 06:07:40;;;;;;;13.83;10.00;;;6.00;99.90;;;;;;5113558;28;20411;-66
2021/03/30 06:10:09;;;;;;;15.00;10.77;;;6.00;99.90;;;;;;5113409;28;20392;-66
2021/03/30 06:12:35;;;;;;;21.20;10.90;;;6.00;99.90;;;;;;5113839;28;20245;-67
2021/03/30 06:15:03;;;;;;;19.07;10.93;;;6.00;99.90;;;;;;5113498;28;20879;-66
2021/03/30 06:17:28;;;;;;;24.77;10.77;;;6.10;99.90;;;;;;5113542;28;20298;-66
2021/03/30 06:19:57;;;;;;;20.87;10.80;;;6.10;99.90;;;;;;5112998;28;21056;-66
2021/03/30 06:22:25;;;;;;;22.80;10.33;;;6.20;99.90;;;;;;5095531;28;20403;-67
2021/03/30 06:24:52;;;;;;;14.13;10.30;;;6.20;99.90;;;;;;5113362;28;20396;-67
2021/03/30 06:27:20;;;;;;;18.77;10.00;;;6.30;99.90;;;;;;5095595;28;20949;-66
2021/03/30 06:29:48;;;;;;;23.53;10.30;;;6.40;99.90;;;;;;5113433;28;20415;-66
2021/03/30 06:32:16;;;;;;;17.63;11.60;;;6.40;99.90;;;;;;5113595;28;20411;-67
2021/03/30 06:34:43;;;;;;;25.07;12.10;;;6.50;99.90;;;;;;5113537;28;20396;-67
2021/03/30 06:37:30;;;;;;;21.80;9.87;;;6.50;99.90;;;;;;5095265;28;20468;-67
2021/03/30 06:40:19;;;;;;;15.93;10.70;;;6.60;99.90;;;;;;5081607;28;20444;-66
2021/03/30 06:42:53;;;;;;;13.53;9.63;;;6.70;99.90;;;;;;5098504;28;20392;-66
2021/03/30 06:47:57;;;;;;;19.13;9.77;;;6.70;99.90;;;;;;5131434;27;20561;-66
2021/03/30 06:53:18;;;;;;;17.53;10.30;;;6.90;99.90;;;;;;5122363;27;20517;-66
2021/03/30 06:55:50;;;;;;;19.87;12.10;;;7.10;99.90;;;;;;5111688;28;20412;-67
2021/03/30 06:58:17;;;;;;;14.90;11.10;;;7.10;99.90;;;;;;5111032;28;20412;-66
2021/03/30 07:00:44;;;;;;;13.03;10.10;;;7.20;99.90;;;;;;5109591;28;20416;-67
2021/03/30 07:03:11;;;;;;;13.27;10.87;;;7.30;99.90;;;;;;5110643;28;20536;-65
2021/03/30 07:05:40;;;;;;;21.07;11.03;;;7.40;99.90;;;;;;5110626;28;20388;-66
2021/03/30 07:10:45;;;;;;;15.90;10.40;;;7.60;99.90;;;;;;5116726;27;20519;-67
2021/03/30 07:13:13;;;;;;;15.20;11.00;;;7.70;99.90;;;;;;5110943;28;20372;-67
2021/03/30 07:15:39;;;;;;;16.57;10.90;;;7.80;99.90;;;;;;5109894;28;20514;-67
2021/03/30 07:20:46;;;;;;;21.57;10.57;;;7.90;99.90;;;;;;5131441;27;20534;-66
2021/03/30 07:23:21;;;;;;;15.50;11.50;;;8.00;99.90;;;;;;5132196;28;20386;-65
2021/03/30 07:26:10;;;;;;;15.77;10.63;;;8.10;99.90;;;;;;5130429;28;20379;-67
2021/03/30 07:34:16;;;;;;;18.03;11.20;;;8.30;99.90;;;;;;5131504;27;20863;-65
2021/03/30 07:37:00;;;;;;;17.23;10.93;;;8.40;99.90;;;;;;5130359;28;20434;-66
2021/03/30 07:39:31;;;;;;;20.03;10.43;;;8.50;99.90;;;;;;5130602;28;20453;-65
2021/03/30 07:41:57;;;;;;;16.17;11.10;;;8.60;99.90;;;;;;5131545;27;20383;-65
2021/03/30 07:44:24;;;;;;;16.60;10.77;;;8.80;99.90;;;;;;5118751;27;20853;-65
2021/03/30 07:46:51;;;;;;;16.73;10.20;;;8.90;99.90;;;;;;5110576;28;20426;-65
2021/03/30 07:49:17;;;;;;;12.27;10.57;;;9.00;99.90;;;;;;5111011;28;20475;-67
2021/03/30 07:51:44;;;;;;;14.70;10.93;;;9.10;99.90;;;;;;5110924;28;20383;-65
2021/03/30 07:54:13;;;;;;;14.10;10.83;;;9.20;99.90;;;;;;5110874;28;20477;-65
2021/03/30 08:02:27;;;;;;;16.67;10.90;;;9.60;99.90;;;;;;5091393;27;20511;-65
2021/03/30 08:05:13;;;;;;;17.00;11.00;;;9.80;99.90;;;;;;5090498;28;20397;-65
2021/03/30 08:07:48;;;;;;;18.13;11.50;;;10.00;99.90;;;;;;5089864;28;20385;-65
2021/03/30 08:10:23;;;;;;;15.07;10.57;;;10.20;99.90;;;;;;5089331;28;20412;-65
2021/03/30 08:12:49;;;;;;;14.30;10.40;;;10.40;99.90;;;;;;5089203;28;20392;-66
2021/03/30 08:15:51;;;;;;;17.37;10.50;;;10.60;99.90;;;;;;5090340;28;20772;-65
2021/03/30 08:18:19;;;;;;;21.50;12.20;;;10.80;99.90;;;;;;5089545;28;20186;-65
2021/03/30 08:21:13;;;;;;;16.53;10.83;;;11.00;99.90;;;;;;5090902;28;20481;-65
2021/03/30 08:26:35;;;;;;;13.57;10.13;;;11.10;99.90;;;;;;5110919;27;20510;-66
2021/03/30 08:29:05;;;;;;;18.63;12.23;;;11.40;99.90;;;;;;5111216;28;20425;-66
2021/03/30 08:31:35;;;;;;;18.17;11.30;;;11.50;99.90;;;;;;5110852;28;20381;-66
2021/03/30 08:34:03;;;;;;;17.10;11.27;;;11.70;99.90;;;;;;5109111;28;20772;-66
2021/03/30 08:36:33;;;;;;;22.37;12.90;;;11.90;99.90;;;;;;5089429;28;20901;-66
2021/03/30 08:39:05;;;;;;;15.43;11.07;;;12.20;99.90;;;;;;5089291;28;20413;-66
2021/03/30 08:44:40;;;;;;;18.30;11.10;;;12.80;99.50;;;;;;5131426;27;20512;-66
2021/03/30 08:47:07;;;;;;;14.97;11.47;;;13.70;97.10;;;;;;5130499;28;20424;-66
2021/03/30 08:52:14;;;;;;;20.83;11.50;;;13.90;96.40;;;;;;5082679;28;21087;-66
2021/03/30 08:54:50;;;;;;;26.80;11.27;;;14.00;95.90;;;;;;5089139;28;20766;-66
2021/03/30 08:57:22;;;;;;;17.40;11.73;;;14.20;95.40;;;;;;5089367;28;20420;-66
2021/03/30 08:59:47;;;;;;;19.00;12.50;;;14.50;95.60;;;;;;5090394;28;20390;-65
2021/03/30 09:02:13;;;;;;;18.70;11.53;;;14.90;95.00;;;;;;5106308;28;20481;-66
2021/03/30 09:04:43;;;;;;;18.50;11.50;;;15.40;94.60;;;;;;5090403;28;20584;-65
2021/03/30 09:07:09;;;;;;;19.40;12.93;;;15.80;92.90;;;;;;5106118;28;20668;-66
2021/03/30 09:09:38;;;;;;;19.93;11.37;;;16.30;90.90;;;;;;5076291;28;20411;-66
2021/03/30 09:12:06;;;;;;;15.83;11.10;;;16.80;89.60;;;;;;5068896;28;20445;-65
2021/03/30 09:14:32;;;;;;;15.80;11.90;;;17.30;85.50;;;;;;5068993;28;20398;-66
2021/03/30 09:17:07;;;;;;;14.63;11.10;;;17.70;81.40;;;;;;5068834;28;20534;-66
2021/03/30 09:19:46;;;;;;;18.20;11.83;;;18.10;79.10;;;;;;5069926;28;20472;-66
2021/03/30 09:22:17;;;;;;;21.30;12.40;;;18.50;76.20;;;;;;5069804;28;20509;-65
2021/03/30 09:24:56;;;;;;;19.83;12.30;;;18.90;72.70;;;;;;5068726;28;20396;-65
2021/03/30 09:27:24;;;;;;;18.37;12.90;;;19.20;69.60;;;;;;5067948;28;20454;-66
2021/03/30 09:29:53;;;;;;;15.70;12.23;;;19.50;67.00;;;;;;5068543;28;20397;-65
2021/03/30 09:32:19;;;;;;;19.97;13.20;;;19.70;65.70;;;;;;5069662;28;20393;-66
2021/03/30 09:34:44;;;;;;;19.90;12.33;;;19.90;63.50;;;;;;5069755;28;20388;-66
2021/03/30 09:37:10;;;;;;;19.33;12.00;;;20.10;59.90;;;;;;5069605;28;20404;-66
2021/03/30 09:39:36;;;;;;;20.10;12.57;;;20.30;58.20;;;;;;5069610;28;20574;-65
2021/03/30 09:42:04;;;;;;;18.50;13.60;;;20.50;53.90;;;;;;5069436;28;20167;-66
2021/03/30 09:44:35;;;;;;;21.77;14.03;;;20.80;51.90;;;;;;5069320;28;20393;-66
2021/03/30 09:47:02;;;;;;;24.80;13.17;;;21.00;51.00;;;;;;5069149;28;20487;-66
2021/03/30 09:49:28;;;;;;;18.30;12.10;;;21.10;51.30;;;;;;5069537;28;20496;-66
2021/03/30 09:51:54;;;;;;;21.63;12.37;;;21.10;51.20;;;;;;5060596;28;21060;-66
2021/03/30 09:54:26;;;;;;;18.03;11.87;;;20.70;51.60;;;;;;5049509;28;20171;-66
2021/03/30 09:57:02;;;;;;;21.53;12.57;;;20.30;51.50;;;;;;5047819;28;20426;-66
2021/03/30 09:59:28;;;;;;;17.93;11.20;;;19.80;52.20;;;;;;5036673;28;20992;-66
2021/03/30 10:01:55;;;;;;;19.73;11.97;;;19.30;53.10;;;;;;5065180;28;20485;-66
2021/03/30 10:04:23;;;;;;;20.90;13.17;;;18.90;54.20;;;;;;5055930;28;20411;-65
2021/03/30 10:06:49;;;;;;;21.93;11.73;;;18.50;55.10;;;;;;5055462;28;20402;-65
2021/03/30 10:09:14;;;;;;;17.53;12.53;;;18.20;55.50;;;;;;5054287;28;20445;-65
2021/03/30 10:11:40;;;;;;;20.00;14.20;;;17.90;56.30;;;;;;5055445;28;20198;-65
2021/03/30 10:14:26;;;;;;;16.73;11.30;;;17.60;56.20;;;;;;5055799;28;20205;-65
2021/03/30 10:16:58;;;;;;;19.10;13.07;;;17.30;56.00;;;;;;5054372;28;20225;-66
2021/03/30 10:19:24;;;;;;;23.03;12.37;;;17.10;57.30;;;;;;5055665;28;20901;-65
2021/03/30 10:21:53;;;;;;;22.13;13.10;;;16.90;58.60;;;;;;5055508;28;20400;-65
2021/03/30 10:24:20;;;;;;;20.27;11.50;;;16.70;59.20;;;;;;5054436;28;20526;-66
2021/03/30 10:27:03;;;;;;;17.27;11.50;;;16.50;58.40;;;;;;5054309;28;20426;-66
2021/03/30 10:29:31;;;;;;;16.50;11.47;;;16.40;58.80;;;;;;5054262;28;20399;-65
2021/03/30 10:32:03;;;;;;;17.10;10.97;;;16.20;59.40;;;;;;5055334;28;20475;-65
2021/03/30 10:34:31;;;;;;;19.10;11.70;;;16.10;59.60;;;;;;5054974;28;20460;-65
2021/03/30 10:37:00;;;;;;;14.90;9.83;;;16.00;60.60;;;;;;5054129;28;20749;-65
2021/03/30 10:39:31;;;;;;;12.47;8.90;;;15.90;61.40;;;;;;5055352;28;20756;-65
2021/03/30 10:42:18;;;;;;;13.80;10.90;;;15.80;62.20;;;;;;5054031;28;20427;-65
2021/03/30 10:44:46;;;;;;;13.23;9.63;;;15.70;62.90;;;;;;5040282;28;20395;-65
2021/03/30 10:49:54;;;;;;;14.73;8.80;;;15.50;63.10;;;;;;5090564;28;20499;-65
2021/03/30 10:52:22;;;;;;;17.33;10.70;;;15.40;61.30;;;;;;5088879;28;20415;-65
2021/03/30 10:54:50;;;;;;;15.30;9.40;;;15.50;57.60;;;;;;5089481;28;20879;-65
2021/03/30 10:57:19;;;;;;;13.10;8.50;;;15.70;55.90;;;;;;5089474;28;20887;-65
2021/03/30 10:59:45;;;;;;;16.57;7.73;;;15.80;56.60;;;;;;5090751;28;20422;-65
2021/03/30 11:02:12;;;;;;;13.20;8.53;;;15.80;57.70;;;;;;5090436;28;20389;-65
2021/03/30 11:04:39;;;;;;;13.70;8.90;;;15.70;57.90;;;;;;5090422;28;20456;-65
2021/03/30 11:07:06;;;;;;;8.80;5.67;;;15.70;56.00;;;;;;5089571;28;20381;-65
2021/03/30 11:09:32;;;;;;;14.33;8.17;;;15.70;57.10;;;;;;5090034;28;20484;-65
2021/03/30 11:11:57;;;;;;;12.50;8.37;;;15.60;58.80;;;;;;5090547;28;20807;-65
2021/03/30 11:14:23;;;;;;;13.07;9.50;;;15.60;59.50;;;;;;5090246;28;20424;-66
2021/03/30 11:16:49;;;;;;;10.23;6.97;;;15.50;60.50;;;;;;5090205;28;20191;-67
2021/03/30 11:19:16;;;;;;;10.93;7.40;;;15.40;62.00;;;;;;5090004;28;20160;-67
2021/03/30 11:21:42;;;;;;;9.80;7.00;;;15.30;62.30;;;;;;5088896;28;20402;-66
2021/03/30 11:24:12;;;;;;;10.13;7.40;;;15.30;61.60;;;;;;5088024;28;20398;-66
2021/03/30 11:26:39;;;;;;;9.40;7.40;;;15.20;63.90;;;;;;5089917;28;20152;-66
2021/03/30 11:29:05;;;;;;;11.00;7.90;;;15.20;65.70;;;;;;5089788;28;20437;-66
2021/03/30 11:31:46;;;;;;;11.60;7.80;;;15.10;66.40;;;;;;5089759;28;20408;-65
2021/03/30 11:34:19;;;;;;;13.80;6.30;;;15.00;66.10;;;;;;5089820;28;20609;-65
2021/03/30 11:36:46;;;;;;;15.10;8.70;;;15.10;59.20;;;;;;5089854;28;20883;-66
2021/03/30 11:39:12;;;;;;;11.00;8.40;;;15.30;57.10;;;;;;5089584;28;20436;-65
2021/03/30 11:41:38;;;;;;;17.80;9.47;;;15.40;60.10;;;;;;5088822;28;20445;-66
2021/03/30 11:44:03;;;;;;;11.13;8.43;;;15.40;62.50;;;;;;5089362;28;20546;-65
2021/03/30 11:46:29;;;;;;;13.93;8.43;;;15.40;63.40;;;;;;5089567;28;20230;-66
2021/03/30 11:48:55;;;;;;;12.33;8.50;;;15.40;58.80;;;;;;5089211;28;20253;-66
2021/03/30 11:51:20;;;;;;;11.70;8.73;;;15.40;60.00;;;;;;5085630;28;20750;-66
2021/03/30 11:53:46;;;;;;;11.13;7.17;;;15.30;61.10;;;;;;5069571;28;20264;-65
2021/03/30 11:56:12;;;;;;;8.30;5.63;;;15.30;61.80;;;;;;5068921;28;20155;-65
2021/03/30 11:58:38;;;;;;;9.60;6.40;;;15.20;61.40;;;;;;5069386;28;20424;-65
2021/03/30 12:01:06;;;;;;;12.07;6.43;;;15.20;61.70;;;;;;5056505;28;20195;-65
2021/03/30 12:03:35;;;;;;;9.13;6.97;;;15.20;62.40;;;;;;5055580;28;20244;-65
2021/03/30 12:06:01;;;;;;;9.40;5.50;;;15.10;62.40;;;;;;5054646;28;20395;-67
2021/03/30 12:08:26;;;;;;;9.00;6.37;;;15.10;63.80;;;;;;5055808;28;20899;-65
2021/03/30 12:10:52;;;;;;;10.67;6.80;;;15.20;56.80;;;;;;5055551;28;20497;-65
2021/03/30 12:13:18;;;;;;;9.10;6.47;;;15.30;60.50;;;;;;5055403;28;20291;-65
2021/03/30 12:15:43;;;;;;;12.10;7.53;;;15.30;59.50;;;;;;5055920;28;20649;-65
2021/03/30 12:18:09;;;;;;;10.00;7.63;;;15.30;59.00;;;;;;5055451;28;20161;-65
2021/03/30 12:20:34;;;;;;;8.10;6.57;;;15.30;56.60;;;;;;5055422;28;20236;-65
2021/03/30 12:23:00;;;;;;;9.70;6.87;;;15.30;55.10;;;;;;5055170;28;20165;-65
2021/03/30 12:25:25;;;;;;;8.20;5.47;;;15.30;57.30;;;;;;5055184;28;20157;-65
2021/03/30 12:27:51;;;;;;;4.43;3.50;;;15.30;56.40;;;;;;5055161;28;20585;-65
2021/03/30 12:30:17;;;;;;;6.70;5.37;;;15.30;59.30;;;;;;5055046;28;20157;-65
2021/03/30 12:32:42;;;;;;;7.33;4.97;;;15.30;61.60;;;;;;5055622;28;20176;-65
2021/03/30 12:35:08;;;;;;;7.03;4.53;;;15.20;63.30;;;;;;5055046;28;20398;-65
2021/03/30 12:37:34;;;;;;;9.47;6.10;;;15.20;65.70;;;;;;5054907;28;20244;-65
2021/03/30 12:40:00;;;;;;;7.70;5.63;;;15.10;63.00;;;;;;5054896;28;20793;-65
2021/03/30 12:42:25;;;;;;;7.07;5.13;;;15.10;63.30;;;;;;5055191;28;20161;-65
2021/03/30 12:44:51;;;;;;;7.40;5.30;;;15.10;57.10;;;;;;5055071;28;20614;-65
2021/03/30 12:47:16;;;;;;;11.33;6.43;;;15.20;59.90;;;;;;5054933;28;20185;-65
2021/03/30 12:49:42;;;;;;;12.93;8.00;;;15.20;60.40;;;;;;5055155;28;20216;-65
2021/03/30 12:52:07;;;;;;;10.80;6.70;;;15.20;56.10;;;;;;5054553;28;20172;-65
2021/03/30 12:54:33;;;;;;;12.23;8.20;;;15.20;60.10;;;;;;5054648;28;20248;-66
2021/03/30 12:56:58;;;;;;;11.43;7.90;;;15.20;55.90;;;;;;5054692;28;20157;-65
2021/03/30 12:59:24;;;;;;;14.27;8.20;;;15.50;47.80;;;;;;5054708;28;20214;-65
2021/03/30 13:01:49;;;;;;;10.10;6.50;;;15.70;47.00;;;;;;5054610;28;20241;-65
2021/03/30 13:04:15;;;;;;;7.57;5.87;;;15.90;47.30;;;;;;5054485;28;20157;-66
2021/03/30 13:06:41;;;;;;;11.93;8.17;;;16.00;47.00;;;;;;5060205;28;20184;-65
2021/03/30 13:09:06;;;;;;;11.10;8.10;;;16.30;45.70;;;;;;5074520;28;20187;-65
2021/03/30 13:11:32;;;;;;;10.83;7.63;;;16.30;50.30;;;;;;5073736;28;20157;-65
2021/03/30 13:13:59;;;;;;;8.93;6.03;;;16.30;50.80;;;;;;5074686;28;20153;-66
2021/03/30 13:16:24;;;;;;;10.60;6.50;;;16.30;47.30;;;;;;5074208;28;20159;-65
2021/03/30 13:18:50;;;;;;;10.83;6.03;;;16.20;50.80;;;;;;5074209;28;20875;-65
2021/03/30 13:21:15;;;;;;;6.90;5.13;;;16.10;52.80;;;;;;5074357;28;20168;-65
2021/03/30 13:23:41;;;;;;;6.13;5.10;;;16.20;44.70;;;;;;5073467;28;20229;-65
2021/03/30 13:26:07;;;;;;;8.67;5.63;;;16.30;51.00;;;;;;5074340;28;20213;-66
2021/03/30 13:28:32;;;;;;;9.93;6.30;;;16.20;52.10;;;;;;5074068;28;20503;-65
2021/03/30 13:30:58;;;;;;;8.47;5.63;;;16.00;54.00;;;;;;5074177;28;20290;-65
2021/03/30 13:33:24;;;;;;;8.80;5.70;;;15.90;50.10;;;;;;5074162;28;20549;-65
2021/03/30 13:35:49;;;;;;;8.67;5.00;;;16.00;47.60;;;;;;5074121;28;20160;-65
2021/03/30 13:38:15;;;;;;;8.33;5.70;;;16.40;41.70;;;;;;5072432;28;20160;-68